sensor_id;sensor_type;location;lat;lon;timestamp;pressure;altitude;pressure_sealevel;temperature;humidity
80509;BME280;69838;52.602;13.434;2023-08-20T00:00:42;101303.56;;;22.49;86.76
80509;BME280;69838;52.602;13.434;2023-08-20T00:01:30;101301.38;;;22.43;86.64
80509;BME280;69838;52.602;13.434;2023-08-20T00:02:17;101292.38;;;22.41;85.97
80509;BME280;69838;52.602;13.434;2023-08-20T00:03:11;101303.25;;;22.43;87.52
80509;BME280;69838;52.602;13.434;2023-08-20T00:03:57;101304.53;;;22.39;88.37
80509;BME280;69838;52.602;13.434;2023-08-20T00:04:44;101302.78;;;22.38;87.79
80509;BME280;69838;52.602;13.434;2023-08-20T00:05:32;101304.78;;;22.36;88.20
80509;BME280;69838;52.602;13.434;2023-08-20T00:06:19;101301.59;;;22.30;88.37
80509;BME280;69838;52.602;13.434;2023-08-20T00:07:05;101301.97;;;22.26;88.23
80509;BME280;69838;52.602;13.434;2023-08-20T00:07:51;101304.88;;;22.24;88.56
80509;BME280;69838;52.602;13.434;2023-08-20T00:08:37;101305.25;;;22.20;88.96
80509;BME280;69838;52.602;13.434;2023-08-20T00:09:23;101302.69;;;22.18;89.32
80509;BME280;69838;52.602;13.434;2023-08-20T00:10:09;101289.31;;;22.14;89.01
80509;BME280;69838;52.602;13.434;2023-08-20T00:10:55;101303.53;;;22.19;88.90
80509;BME280;69838;52.602;13.434;2023-08-20T00:11:41;101302.06;;;22.15;88.97
80509;BME280;69838;52.602;13.434;2023-08-20T00:12:27;101299.47;;;22.13;88.95
80509;BME280;69838;52.602;13.434;2023-08-20T00:13:14;101298.13;;;22.07;89.20
80509;BME280;69838;52.602;13.434;2023-08-20T00:13:59;101293.03;;;22.03;90.33
80509;BME280;69838;52.602;13.434;2023-08-20T00:14:55;101294.91;;;22.02;90.46
80509;BME280;69838;52.602;13.434;2023-08-20T00:15:43;101305.19;;;22.00;91.06
80509;BME280;69838;52.602;13.434;2023-08-20T00:16:29;101310.81;;;21.99;91.53
80509;BME280;69838;52.602;13.434;2023-08-20T00:17:16;101308.19;;;21.97;91.04
80509;BME280;69838;52.602;13.434;2023-08-20T00:18:02;101314.06;;;21.92;90.92
80509;BME280;69838;52.602;13.434;2023-08-20T00:18:48;101309.72;;;21.90;90.70
80509;BME280;69838;52.602;13.434;2023-08-20T00:19:35;101307.66;;;21.82;91.06
80509;BME280;69838;52.602;13.434;2023-08-20T00:20:20;101311.41;;;21.81;90.56
80509;BME280;69838;52.602;13.434;2023-08-20T00:21:07;101316.78;;;21.83;90.18
80509;BME280;69838;52.602;13.434;2023-08-20T00:21:53;101311.88;;;21.86;90.87
80509;BME280;69838;52.602;13.434;2023-08-20T00:22:39;101313.16;;;21.82;90.40
80509;BME280;69838;52.602;13.434;2023-08-20T00:23:27;101308.78;;;21.80;90.80
80509;BME280;69838;52.602;13.434;2023-08-20T00:24:13;101313.16;;;21.82;90.71
80509;BME280;69838;52.602;13.434;2023-08-20T00:24:59;101312.56;;;21.79;91.28
80509;BME280;69838;52.602;13.434;2023-08-20T00:25:46;101312.41;;;21.80;91.05
80509;BME280;69838;52.602;13.434;2023-08-20T00:26:32;101318.91;;;21.79;90.84
80509;BME280;69838;52.602;13.434;2023-08-20T00:27:18;101319.44;;;21.73;90.68
80509;BME280;69838;52.602;13.434;2023-08-20T00:28:05;101320.94;;;21.77;90.13
80509;BME280;69838;52.602;13.434;2023-08-20T00:28:51;101317.16;;;21.78;91.53
80509;BME280;69838;52.602;13.434;2023-08-20T00:29:37;101327.56;;;21.74;90.80
80509;BME280;69838;52.602;13.434;2023-08-20T00:30:22;101325.69;;;21.75;91.07
80509;BME280;69838;52.602;13.434;2023-08-20T00:31:08;101327.41;;;21.76;90.82
80509;BME280;69838;52.602;13.434;2023-08-20T00:31:54;101328.44;;;21.75;91.69
80509;BME280;69838;52.602;13.434;2023-08-20T00:32:40;101328.69;;;21.72;91.60
80509;BME280;69838;52.602;13.434;2023-08-20T00:33:25;101326.47;;;21.66;91.91
80509;BME280;69838;52.602;13.434;2023-08-20T00:34:11;101336.81;;;21.73;90.80
80509;BME280;69838;52.602;13.434;2023-08-20T00:34:57;101334.44;;;21.69;90.90
80509;BME280;69838;52.602;13.434;2023-08-20T00:35:42;101333.59;;;21.68;91.94
80509;BME280;69838;52.602;13.434;2023-08-20T00:36:28;101336.59;;;21.65;91.40
80509;BME280;69838;52.602;13.434;2023-08-20T00:37:14;101342.22;;;21.64;91.14
80509;BME280;69838;52.602;13.434;2023-08-20T00:37:59;101340.97;;;21.68;91.11
80509;BME280;69838;52.602;13.434;2023-08-20T00:38:46;101328.00;;;21.59;91.70
80509;BME280;69838;52.602;13.434;2023-08-20T00:39:31;101337.00;;;21.61;90.57
80509;BME280;69838;52.602;13.434;2023-08-20T00:40:17;101336.84;;;21.62;91.87
80509;BME280;69838;52.602;13.434;2023-08-20T00:41:03;101332.38;;;21.61;91.27
80509;BME280;69838;52.602;13.434;2023-08-20T00:41:49;101312.31;;;21.49;91.59
80509;BME280;69838;52.602;13.434;2023-08-20T00:42:34;101331.78;;;21.58;91.63
80509;BME280;69838;52.602;13.434;2023-08-20T00:43:22;101332.75;;;21.57;90.80
80509;BME280;69838;52.602;13.434;2023-08-20T00:44:07;101331.78;;;21.58;90.22
80509;BME280;69838;52.602;13.434;2023-08-20T00:44:53;101331.78;;;21.58;91.56
80509;BME280;69838;52.602;13.434;2023-08-20T00:45:40;101329.50;;;21.63;92.44
80509;BME280;69838;52.602;13.434;2023-08-20T00:46:26;101321.16;;;21.53;92.31
80509;BME280;69838;52.602;13.434;2023-08-20T00:47:13;101332.75;;;21.57;91.50
80509;BME280;69838;52.602;13.434;2023-08-20T00:47:58;101328.28;;;21.56;90.84
80509;BME280;69838;52.602;13.434;2023-08-20T00:48:44;101330.75;;;21.59;91.89
80509;BME280;69838;52.602;13.434;2023-08-20T00:49:31;101328.28;;;21.56;91.46
80509;BME280;69838;52.602;13.434;2023-08-20T00:50:17;101327.41;;;21.55;92.05
80509;BME280;69838;52.602;13.434;2023-08-20T00:51:03;101330.31;;;21.53;92.27
80509;BME280;69838;52.602;13.434;2023-08-20T00:51:50;101335.25;;;21.60;91.86
80509;BME280;69838;52.602;13.434;2023-08-20T00:52:36;101333.03;;;21.53;92.14
80509;BME280;69838;52.602;13.434;2023-08-20T00:53:21;101325.81;;;21.41;92.69
80509;BME280;69838;52.602;13.434;2023-08-20T00:54:08;101334.56;;;21.46;92.11
80509;BME280;69838;52.602;13.434;2023-08-20T00:54:53;101344.75;;;21.44;91.83
80509;BME280;69838;52.602;13.434;2023-08-20T00:55:41;101335.56;;;21.45;92.30
80509;BME280;69838;52.602;13.434;2023-08-20T00:56:28;101340.53;;;21.40;93.28
80509;BME280;69838;52.602;13.434;2023-08-20T00:57:14;101341.81;;;21.36;92.53
80509;BME280;69838;52.602;13.434;2023-08-20T00:57:59;101333.31;;;21.39;92.53
80509;BME280;69838;52.602;13.434;2023-08-20T00:58:47;101338.81;;;21.39;92.73
80509;BME280;69838;52.602;13.434;2023-08-20T00:59:33;101335.31;;;21.37;92.88
80509;BME280;69838;52.602;13.434;2023-08-20T01:00:19;101341.69;;;21.38;93.39
80509;BME280;69838;52.602;13.434;2023-08-20T01:01:07;101341.06;;;21.34;92.56
80509;BME280;69838;52.602;13.434;2023-08-20T01:01:52;101341.81;;;21.36;92.50
80509;BME280;69838;52.602;13.434;2023-08-20T01:02:38;101342.81;;;21.35;92.24
80509;BME280;69838;52.602;13.434;2023-08-20T01:03:25;101337.59;;;21.32;92.50
80509;BME280;69838;52.602;13.434;2023-08-20T01:04:11;101346.09;;;21.29;92.41
80509;BME280;69838;52.602;13.434;2023-08-20T01:04:56;101343.47;;;21.27;92.91
80509;BME280;69838;52.602;13.434;2023-08-20T01:05:48;101355.44;;;21.26;92.63
80509;BME280;69838;52.602;13.434;2023-08-20T01:06:41;101347.06;;;21.28;92.19
80509;BME280;69838;52.602;13.434;2023-08-20T01:07:36;101351.44;;;21.30;92.53
80509;BME280;69838;52.602;13.434;2023-08-20T01:08:29;101349.69;;;21.29;91.77
80509;BME280;69838;52.602;13.434;2023-08-20T01:09:28;101345.84;;;21.21;93.00
80509;BME280;69838;52.602;13.434;2023-08-20T01:10:26;101345.84;;;21.21;92.20
80509;BME280;69838;52.602;13.434;2023-08-20T01:11:17;101344.72;;;21.23;92.73
80509;BME280;69838;52.602;13.434;2023-08-20T01:12:07;101358.59;;;21.22;92.77
80509;BME280;69838;52.602;13.434;2023-08-20T01:12:54;101345.09;;;21.19;93.04
80509;BME280;69838;52.602;13.434;2023-08-20T01:13:39;101349.13;;;21.14;92.85
80509;BME280;69838;52.602;13.434;2023-08-20T01:14:27;101350.72;;;21.17;93.34
80509;BME280;69838;52.602;13.434;2023-08-20T01:15:12;101349.84;;;21.16;93.42
80509;BME280;69838;52.602;13.434;2023-08-20T01:15:59;101354.72;;;21.13;92.94
80509;BME280;69838;52.602;13.434;2023-08-20T01:16:45;101338.63;;;21.20;91.06
80509;BME280;69838;52.602;13.434;2023-08-20T01:17:31;101355.31;;;21.28;91.50
80509;BME280;69838;52.602;13.434;2023-08-20T01:18:16;101363.06;;;21.23;92.49
80509;BME280;69838;52.602;13.434;2023-08-20T01:19:03;101353.22;;;21.20;91.81
80509;BME280;69838;52.602;13.434;2023-08-20T01:19:49;101352.06;;;21.23;91.70
80509;BME280;69838;52.602;13.434;2023-08-20T01:20:39;101358.84;;;21.19;92.30
80509;BME280;69838;52.602;13.434;2023-08-20T01:21:37;101353.59;;;21.15;92.06
80509;BME280;69838;52.602;13.434;2023-08-20T01:22:44;101352.38;;;21.41;90.50
80509;BME280;69838;52.602;13.434;2023-08-20T01:23:50;101358.16;;;21.38;90.92
80509;BME280;69838;52.602;13.434;2023-08-20T01:24:47;101349.81;;;21.28;91.72
80509;BME280;69838;52.602;13.434;2023-08-20T01:25:52;101354.03;;;21.43;90.00
80509;BME280;69838;52.602;13.434;2023-08-20T01:26:50;101360.34;;;21.55;89.21
80509;BME280;69838;52.602;13.434;2023-08-20T01:27:51;101364.13;;;21.54;89.53
80509;BME280;69838;52.602;13.434;2023-08-20T01:28:39;101363.25;;;21.53;89.08
80509;BME280;69838;52.602;13.434;2023-08-20T01:29:26;101356.88;;;21.53;89.38
80509;BME280;69838;52.602;13.434;2023-08-20T01:30:12;101350.03;;;21.47;89.75
80509;BME280;69838;52.602;13.434;2023-08-20T01:30:59;101363.13;;;21.44;89.84
80509;BME280;69838;52.602;13.434;2023-08-20T01:31:46;101359.88;;;21.39;90.57
80509;BME280;69838;52.602;13.434;2023-08-20T01:32:32;101363.66;;;21.38;90.22
80509;BME280;69838;52.602;13.434;2023-08-20T01:33:18;101362.91;;;21.35;90.45
80509;BME280;69838;52.602;13.434;2023-08-20T01:34:05;101357.78;;;21.53;89.89
80509;BME280;69838;52.602;13.434;2023-08-20T01:34:52;101363.41;;;21.73;88.95
80509;BME280;69838;52.602;13.434;2023-08-20T01:35:38;101355.31;;;21.71;88.92
80509;BME280;69838;52.602;13.434;2023-08-20T01:36:24;101363.63;;;21.81;88.77
80509;BME280;69838;52.602;13.434;2023-08-20T01:37:09;101362.63;;;21.82;88.25
80509;BME280;69838;52.602;13.434;2023-08-20T01:37:55;101367.72;;;21.87;88.50
80509;BME280;69838;52.602;13.434;2023-08-20T01:38:41;101364.84;;;21.88;88.19
80509;BME280;69838;52.602;13.434;2023-08-20T01:39:26;101364.84;;;21.88;88.30
80509;BME280;69838;52.602;13.434;2023-08-20T01:40:13;101372.81;;;21.91;88.22
80509;BME280;69838;52.602;13.434;2023-08-20T01:40:58;101366.16;;;21.94;87.99
80509;BME280;69838;52.602;13.434;2023-08-20T01:41:43;101358.59;;;21.86;88.28
80509;BME280;69838;52.602;13.434;2023-08-20T01:42:30;101358.34;;;21.89;88.47
80509;BME280;69838;52.602;13.434;2023-08-20T01:43:15;101364.97;;;21.87;88.55
80509;BME280;69838;52.602;13.434;2023-08-20T01:44:02;101363.84;;;21.89;88.50
80509;BME280;69838;52.602;13.434;2023-08-20T01:44:49;101359.72;;;21.84;88.71
80509;BME280;69838;52.602;13.434;2023-08-20T01:45:34;101360.66;;;21.94;88.35
80509;BME280;69838;52.602;13.434;2023-08-20T01:46:19;101365.31;;;21.93;88.43
80509;BME280;69838;52.602;13.434;2023-08-20T01:47:06;101356.34;;;21.91;88.42
80509;BME280;69838;52.602;13.434;2023-08-20T01:47:52;101370.81;;;21.93;88.19
80509;BME280;69838;52.602;13.434;2023-08-20T01:48:37;101371.78;;;21.92;88.33
80509;BME280;69838;52.602;13.434;2023-08-20T01:49:23;101367.44;;;21.90;88.58
80509;BME280;69838;52.602;13.434;2023-08-20T01:50:09;101354.09;;;21.85;88.62
80509;BME280;69838;52.602;13.434;2023-08-20T01:50:56;101367.94;;;21.95;88.81
80509;BME280;69838;52.602;13.434;2023-08-20T01:51:41;101375.69;;;21.90;88.79
80509;BME280;69838;52.602;13.434;2023-08-20T01:52:26;101376.03;;;21.97;88.70
80509;BME280;69838;52.602;13.434;2023-08-20T01:53:14;101378.03;;;21.95;88.99
80509;BME280;69838;52.602;13.434;2023-08-20T01:53:59;101381.53;;;21.97;88.63
80509;BME280;69838;52.602;13.434;2023-08-20T01:54:45;101370.81;;;21.93;88.66
80509;BME280;69838;52.602;13.434;2023-08-20T01:55:31;101377.78;;;21.98;88.72
80509;BME280;69838;52.602;13.434;2023-08-20T01:56:16;101380.03;;;21.92;89.07
80509;BME280;69838;52.602;13.434;2023-08-20T01:57:02;101364.34;;;21.83;89.11
80509;BME280;69838;52.602;13.434;2023-08-20T01:57:48;101384.31;;;21.85;89.40
80509;BME280;69838;52.602;13.434;2023-08-20T01:58:34;101378.84;;;21.85;89.41
80509;BME280;69838;52.602;13.434;2023-08-20T01:59:22;101379.38;;;21.79;89.86
80509;BME280;69838;52.602;13.434;2023-08-20T02:00:10;101381.09;;;21.80;89.52
80509;BME280;69838;52.602;13.434;2023-08-20T02:00:56;101376.16;;;21.74;90.45
80509;BME280;69838;52.602;13.434;2023-08-20T02:01:41;101373.03;;;21.79;90.05
80509;BME280;69838;52.602;13.434;2023-08-20T02:02:27;101380.25;;;21.80;89.75
80509;BME280;69838;52.602;13.434;2023-08-20T02:03:13;101377.91;;;21.75;90.21
80509;BME280;69838;52.602;13.434;2023-08-20T02:03:59;101368.63;;;21.76;90.36
80509;BME280;69838;52.602;13.434;2023-08-20T02:04:44;101373.34;;;21.85;90.22
80509;BME280;69838;52.602;13.434;2023-08-20T02:05:30;101374.88;;;21.78;90.29
80509;BME280;69838;52.602;13.434;2023-08-20T02:06:16;101374.88;;;21.78;90.49
80509;BME280;69838;52.602;13.434;2023-08-20T02:07:01;101379.63;;;21.76;90.02
80509;BME280;69838;52.602;13.434;2023-08-20T02:07:47;101371.94;;;21.70;90.21
80509;BME280;69838;52.602;13.434;2023-08-20T02:08:33;101383.41;;;21.75;90.35
80509;BME280;69838;52.602;13.434;2023-08-20T02:09:19;101381.63;;;21.74;90.61
80509;BME280;69838;52.602;13.434;2023-08-20T02:10:05;101381.38;;;21.77;90.72
80509;BME280;69838;52.602;13.434;2023-08-20T02:10:59;101386.88;;;21.77;90.18
80509;BME280;69838;52.602;13.434;2023-08-20T02:11:45;101381.09;;;21.80;90.45
80509;BME280;69838;52.602;13.434;2023-08-20T02:12:31;101383.13;;;21.78;90.33
80509;BME280;69838;52.602;13.434;2023-08-20T02:13:17;101390.50;;;21.78;90.68
80509;BME280;69838;52.602;13.434;2023-08-20T02:14:02;101387.88;;;21.76;90.70
80509;BME280;69838;52.602;13.434;2023-08-20T02:14:50;101386.88;;;21.77;90.89
80509;BME280;69838;52.602;13.434;2023-08-20T02:15:35;101385.38;;;21.73;90.70
80509;BME280;69838;52.602;13.434;2023-08-20T02:16:21;101385.13;;;21.76;90.79
80509;BME280;69838;52.602;13.434;2023-08-20T02:17:07;101385.13;;;21.76;91.08
80509;BME280;69838;52.602;13.434;2023-08-20T02:17:53;101391.78;;;21.73;90.84
80509;BME280;69838;52.602;13.434;2023-08-20T02:18:38;101398.38;;;21.71;91.07
80509;BME280;69838;52.602;13.434;2023-08-20T02:19:25;101394.91;;;21.69;91.17
80509;BME280;69838;52.602;13.434;2023-08-20T02:20:10;101390.44;;;21.68;91.27
80509;BME280;69838;52.602;13.434;2023-08-20T02:20:56;101387.31;;;21.61;91.74
80509;BME280;69838;52.602;13.434;2023-08-20T02:21:42;101393.44;;;21.65;91.44
80509;BME280;69838;52.602;13.434;2023-08-20T02:22:28;101391.94;;;21.61;91.42
80509;BME280;69838;52.602;13.434;2023-08-20T02:23:14;101401.91;;;21.62;92.07
80509;BME280;69838;52.602;13.434;2023-08-20T02:24:01;101396.44;;;21.62;91.76
80509;BME280;69838;52.602;13.434;2023-08-20T02:24:46;101392.31;;;21.56;92.10
80509;BME280;69838;52.602;13.434;2023-08-20T02:25:31;101398.69;;;21.57;92.25
80509;BME280;69838;52.602;13.434;2023-08-20T02:26:18;101395.19;;;21.54;92.40
80509;BME280;69838;52.602;13.434;2023-08-20T02:27:03;101402.59;;;21.54;92.12
80509;BME280;69838;52.602;13.434;2023-08-20T02:27:49;101403.69;;;21.51;92.50
80509;BME280;69838;52.602;13.434;2023-08-20T02:28:35;101403.97;;;21.48;92.83
80509;BME280;69838;52.602;13.434;2023-08-20T02:29:20;101399.47;;;21.47;92.62
80509;BME280;69838;52.602;13.434;2023-08-20T02:30:08;101403.97;;;21.48;92.92
80509;BME280;69838;52.602;13.434;2023-08-20T02:30:55;101409.72;;;21.45;92.95
80509;BME280;69838;52.602;13.434;2023-08-20T02:31:42;101406.06;;;21.45;93.22
80509;BME280;69838;52.602;13.434;2023-08-20T02:32:28;101408.81;;;21.45;93.34
80509;BME280;69838;52.602;13.434;2023-08-20T02:33:15;101409.81;;;21.44;93.15
80509;BME280;69838;52.602;13.434;2023-08-20T02:34:00;101394.84;;;21.36;93.54
80509;BME280;69838;52.602;13.434;2023-08-20T02:34:48;101399.69;;;21.44;93.08
80509;BME280;69838;52.602;13.434;2023-08-20T02:35:34;101404.22;;;21.45;93.15
80509;BME280;69838;52.602;13.434;2023-08-20T02:36:19;101416.31;;;21.43;93.48
80509;BME280;69838;52.602;13.434;2023-08-20T02:37:06;101407.31;;;21.41;93.29
80509;BME280;69838;52.602;13.434;2023-08-20T02:37:52;101407.19;;;21.42;93.41
80509;BME280;69838;52.602;13.434;2023-08-20T02:38:38;101402.59;;;21.43;93.67
80509;BME280;69838;52.602;13.434;2023-08-20T02:39:24;101413.94;;;21.38;93.89
80509;BME280;69838;52.602;13.434;2023-08-20T02:40:10;101408.81;;;21.33;94.25
80509;BME280;69838;52.602;13.434;2023-08-20T02:40:56;101409.59;;;21.35;94.06
80509;BME280;69838;52.602;13.434;2023-08-20T02:41:43;101406.69;;;21.37;94.06
80509;BME280;69838;52.602;13.434;2023-08-20T02:42:28;101411.94;;;21.40;93.95
80509;BME280;69838;52.602;13.434;2023-08-20T02:43:14;101419.94;;;21.43;93.55
80509;BME280;69838;52.602;13.434;2023-08-20T02:44:00;101410.22;;;21.39;93.83
80509;BME280;69838;52.602;13.434;2023-08-20T02:44:45;101403.94;;;21.37;94.13
80509;BME280;69838;52.602;13.434;2023-08-20T02:45:39;101420.91;;;21.42;94.08
80509;BME280;69838;52.602;13.434;2023-08-20T02:46:25;101416.31;;;21.43;93.75
80509;BME280;69838;52.602;13.434;2023-08-20T02:47:11;101416.31;;;21.43;93.85
80509;BME280;69838;52.602;13.434;2023-08-20T02:47:56;101416.44;;;21.41;93.86
80509;BME280;69838;52.602;13.434;2023-08-20T02:48:42;101417.19;;;21.43;93.88
80509;BME280;69838;52.602;13.434;2023-08-20T02:49:28;101418.19;;;21.42;93.84
80509;BME280;69838;52.602;13.434;2023-08-20T02:50:14;101414.56;;;21.42;94.02
80509;BME280;69838;52.602;13.434;2023-08-20T02:50:59;101409.94;;;21.42;93.88
80509;BME280;69838;52.602;13.434;2023-08-20T02:51:45;101409.59;;;21.35;94.08
80509;BME280;69838;52.602;13.434;2023-08-20T02:52:31;101415.97;;;21.36;94.33
80509;BME280;69838;52.602;13.434;2023-08-20T02:53:16;101408.47;;;21.38;94.50
80509;BME280;69838;52.602;13.434;2023-08-20T02:54:03;101418.69;;;21.36;94.47
80509;BME280;69838;52.602;13.434;2023-08-20T02:54:49;101417.69;;;21.37;94.83
80509;BME280;69838;52.602;13.434;2023-08-20T02:55:35;101402.25;;;21.25;94.81
80509;BME280;69838;52.602;13.434;2023-08-20T02:56:20;101415.22;;;21.34;94.81
80509;BME280;69838;52.602;13.434;2023-08-20T02:57:06;101418.94;;;21.33;95.04
80509;BME280;69838;52.602;13.434;2023-08-20T02:57:52;101416.94;;;21.35;94.99
80509;BME280;69838;52.602;13.434;2023-08-20T02:58:37;101417.97;;;21.34;94.68
80509;BME280;69838;52.602;13.434;2023-08-20T02:59:23;101420.59;;;21.35;94.78
80509;BME280;69838;52.602;13.434;2023-08-20T03:00:10;101412.47;;;21.34;94.87
80509;BME280;69838;52.602;13.434;2023-08-20T03:01:00;101418.47;;;21.39;94.95
80509;BME280;69838;52.602;13.434;2023-08-20T03:01:45;101422.94;;;21.40;94.68
80509;BME280;69838;52.602;13.434;2023-08-20T03:02:31;101417.69;;;21.37;94.81
80509;BME280;69838;52.602;13.434;2023-08-20T03:03:17;101414.19;;;21.35;95.13
80509;BME280;69838;52.602;13.434;2023-08-20T03:04:02;101419.44;;;21.38;94.91
80509;BME280;69838;52.602;13.434;2023-08-20T03:04:49;101420.59;;;21.35;95.11
80509;BME280;69838;52.602;13.434;2023-08-20T03:05:34;101416.19;;;21.33;95.13
80509;BME280;69838;52.602;13.434;2023-08-20T03:06:20;101421.44;;;21.36;94.82
80509;BME280;69838;52.602;13.434;2023-08-20T03:07:06;101421.44;;;21.36;95.17
80509;BME280;69838;52.602;13.434;2023-08-20T03:07:51;101418.09;;;21.32;95.27
80509;BME280;69838;52.602;13.434;2023-08-20T03:08:37;101422.44;;;21.35;95.13
80509;BME280;69838;52.602;13.434;2023-08-20T03:09:23;101414.19;;;21.35;95.21
80509;BME280;69838;52.602;13.434;2023-08-20T03:10:09;101421.69;;;21.33;95.52
80509;BME280;69838;52.602;13.434;2023-08-20T03:10:55;101427.72;;;21.27;95.77
80509;BME280;69838;52.602;13.434;2023-08-20T03:11:40;101421.09;;;21.29;95.85
80509;BME280;69838;52.602;13.434;2023-08-20T03:12:26;101414.22;;;21.24;95.99
80509;BME280;69838;52.602;13.434;2023-08-20T03:13:12;101421.47;;;21.25;96.06
80509;BME280;69838;52.602;13.434;2023-08-20T03:13:57;101418.59;;;21.26;96.18
80509;BME280;69838;52.602;13.434;2023-08-20T03:14:44;101419.19;;;21.30;95.74
80509;BME280;69838;52.602;13.434;2023-08-20T03:15:29;101427.44;;;21.30;96.02
80509;BME280;69838;52.602;13.434;2023-08-20T03:16:16;101405.00;;;21.25;95.93
80509;BME280;69838;52.602;13.434;2023-08-20T03:17:03;101426.81;;;21.26;96.16
80509;BME280;69838;52.602;13.434;2023-08-20T03:17:49;101426.81;;;21.26;96.18
80509;BME280;69838;52.602;13.434;2023-08-20T03:18:34;101429.72;;;21.25;96.51
80509;BME280;69838;52.602;13.434;2023-08-20T03:19:20;101432.84;;;21.20;96.38
80509;BME280;69838;52.602;13.434;2023-08-20T03:20:07;101434.19;;;21.26;96.13
80509;BME280;69838;52.602;13.434;2023-08-20T03:20:54;101429.72;;;21.25;96.08
80509;BME280;69838;52.602;13.434;2023-08-20T03:21:40;101421.22;;;21.16;96.16
80509;BME280;69838;52.602;13.434;2023-08-20T03:22:26;101435.47;;;21.22;96.43
80509;BME280;69838;52.602;13.434;2023-08-20T03:23:12;101438.94;;;21.24;96.55
80509;BME280;69838;52.602;13.434;2023-08-20T03:23:58;101431.84;;;21.21;96.53
80509;BME280;69838;52.602;13.434;2023-08-20T03:24:43;101445.81;;;21.18;96.66
80509;BME280;69838;52.602;13.434;2023-08-20T03:25:29;101446.69;;;21.19;97.00
80509;BME280;69838;52.602;13.434;2023-08-20T03:26:15;101441.44;;;21.15;97.01
80509;BME280;69838;52.602;13.434;2023-08-20T03:27:00;101449.66;;;21.15;96.90
80509;BME280;69838;52.602;13.434;2023-08-20T03:27:46;101447.69;;;21.17;97.00
80509;BME280;69838;52.602;13.434;2023-08-20T03:28:32;101448.69;;;21.16;96.98
80509;BME280;69838;52.602;13.434;2023-08-20T03:29:17;101448.81;;;21.15;96.88
80509;BME280;69838;52.602;13.434;2023-08-20T03:30:04;101453.56;;;21.13;97.28
80509;BME280;69838;52.602;13.434;2023-08-20T03:30:50;101451.78;;;21.12;97.53
80509;BME280;69838;52.602;13.434;2023-08-20T03:31:37;101440.47;;;21.05;97.33
80509;BME280;69838;52.602;13.434;2023-08-20T03:32:24;101445.69;;;21.08;97.43
80509;BME280;69838;52.602;13.434;2023-08-20T03:33:09;101449.94;;;21.12;97.15
80509;BME280;69838;52.602;13.434;2023-08-20T03:33:55;101439.72;;;21.03;97.14
80509;BME280;69838;52.602;13.434;2023-08-20T03:34:41;101446.69;;;21.07;97.43
80509;BME280;69838;52.602;13.434;2023-08-20T03:35:26;101444.94;;;21.06;97.61
80509;BME280;69838;52.602;13.434;2023-08-20T03:36:12;101446.94;;;21.04;97.68
80509;BME280;69838;52.602;13.434;2023-08-20T03:36:58;101450.56;;;21.05;97.85
80509;BME280;69838;52.602;13.434;2023-08-20T03:37:43;101442.47;;;21.03;97.60
80509;BME280;69838;52.602;13.434;2023-08-20T03:38:29;101449.69;;;21.04;97.89
80509;BME280;69838;52.602;13.434;2023-08-20T03:39:15;101448.19;;;21.00;97.83
80509;BME280;69838;52.602;13.434;2023-08-20T03:40:01;101445.34;;;21.02;97.69
80509;BME280;69838;52.602;13.434;2023-08-20T03:40:50;101447.47;;;20.98;98.01
80509;BME280;69838;52.602;13.434;2023-08-20T03:41:36;101444.97;;;20.95;97.97
80509;BME280;69838;52.602;13.434;2023-08-20T03:42:21;101442.34;;;20.93;97.98
80509;BME280;69838;52.602;13.434;2023-08-20T03:43:07;101440.34;;;20.95;98.23
80509;BME280;69838;52.602;13.434;2023-08-20T03:43:53;101446.69;;;20.96;98.36
80509;BME280;69838;52.602;13.434;2023-08-20T03:44:38;101452.16;;;20.96;98.49
80509;BME280;69838;52.602;13.434;2023-08-20T03:45:24;101450.22;;;20.98;97.93
80509;BME280;69838;52.602;13.434;2023-08-20T03:46:10;101451.94;;;20.99;97.77
80509;BME280;69838;52.602;13.434;2023-08-20T03:46:57;101446.69;;;20.96;98.19
80509;BME280;69838;52.602;13.434;2023-08-20T03:47:43;101449.44;;;20.96;98.26
80509;BME280;69838;52.602;13.434;2023-08-20T03:48:32;101449.69;;;20.93;98.29
80509;BME280;69838;52.602;13.434;2023-08-20T03:49:17;101458.69;;;20.95;98.31
80509;BME280;69838;52.602;13.434;2023-08-20T03:50:02;101450.69;;;20.92;98.25
80509;BME280;69838;52.602;13.434;2023-08-20T03:50:49;101454.44;;;20.91;98.60
80509;BME280;69838;52.602;13.434;2023-08-20T03:51:35;101460.19;;;20.88;98.58
80509;BME280;69838;52.602;13.434;2023-08-20T03:52:21;101449.19;;;20.88;98.74
80509;BME280;69838;52.602;13.434;2023-08-20T03:53:06;101439.22;;;20.75;98.56
80509;BME280;69838;52.602;13.434;2023-08-20T03:53:53;101449.94;;;20.78;99.02
80509;BME280;69838;52.602;13.434;2023-08-20T03:54:38;101456.03;;;20.71;99.30
80509;BME280;69838;52.602;13.434;2023-08-20T03:55:23;101448.94;;;20.68;99.41
80509;BME280;69838;52.602;13.434;2023-08-20T03:56:09;101448.94;;;20.68;99.74
80509;BME280;69838;52.602;13.434;2023-08-20T03:56:55;101444.59;;;20.66;99.67
80509;BME280;69838;52.602;13.434;2023-08-20T03:57:41;101447.69;;;20.61;99.96
80509;BME280;69838;52.602;13.434;2023-08-20T03:58:27;101458.94;;;20.69;100.00
80509;BME280;69838;52.602;13.434;2023-08-20T03:59:13;101458.94;;;20.69;99.97
80509;BME280;69838;52.602;13.434;2023-08-20T03:59:58;101459.78;;;20.70;99.89
80509;BME280;69838;52.602;13.434;2023-08-20T04:00:45;101466.13;;;20.70;99.85
80509;BME280;69838;52.602;13.434;2023-08-20T04:01:30;101469.63;;;20.72;99.92